sensor_id;sensor_type;location;lat;lon;timestamp;P1;durP1;ratioP1;P2;durP2;ratioP2
5257;SDS011;2651;51.594;9.928;2022-07-09T00:00:18;7.80;;;3.00;;
5257;SDS011;2651;51.594;9.928;2022-07-09T00:01:20;3.57;;;3.27;;
5257;SDS011;2651;51.594;9.928;2022-07-09T00:02:22;3.77;;;3.27;;
5257;SDS011;2651;51.594;9.928;2022-07-09T00:03:24;2.80;;;2.60;;
5257;SDS011;2651;51.594;9.928;2022-07-09T00:04:26;4.40;;;2.83;;
5257;SDS011;2651;51.594;9.928;2022-07-09T00:05:28;3.40;;;2.90;;
5257;SDS011;2651;51.594;9.928;2022-07-09T00:06:30;6.80;;;2.63;;
5257;SDS011;2651;51.594;9.928;2022-07-09T00:07:32;5.17;;;2.70;;
5257;SDS011;2651;51.594;9.928;2022-07-09T00:08:34;3.67;;;2.90;;
5257;SDS011;2651;51.594;9.928;2022-07-09T00:09:37;4.47;;;3.10;;
5257;SDS011;2651;51.594;9.928;2022-07-09T00:10:39;8.63;;;2.87;;
5257;SDS011;2651;51.594;9.928;2022-07-09T00:11:40;5.60;;;3.00;;
5257;SDS011;2651;51.594;9.928;2022-07-09T00:12:42;7.13;;;2.70;;
5257;SDS011;2651;51.594;9.928;2022-07-09T00:13:44;5.90;;;2.93;;
5257;SDS011;2651;51.594;9.928;2022-07-09T00:14:46;6.90;;;3.20;;
5257;SDS011;2651;51.594;9.928;2022-07-09T00:15:48;5.47;;;2.50;;
5257;SDS011;2651;51.594;9.928;2022-07-09T00:16:51;3.43;;;2.60;;
5257;SDS011;2651;51.594;9.928;2022-07-09T00:17:53;3.37;;;3.10;;
5257;SDS011;2651;51.594;9.928;2022-07-09T00:18:55;5.10;;;2.77;;
5257;SDS011;2651;51.594;9.928;2022-07-09T00:19:57;4.50;;;2.83;;
5257;SDS011;2651;51.594;9.928;2022-07-09T00:20:59;6.60;;;3.17;;
5257;SDS011;2651;51.594;9.928;2022-07-09T00:22:00;5.00;;;2.83;;
5257;SDS011;2651;51.594;9.928;2022-07-09T00:23:03;5.30;;;3.10;;
5257;SDS011;2651;51.594;9.928;2022-07-09T00:24:05;6.37;;;3.50;;
5257;SDS011;2651;51.594;9.928;2022-07-09T00:25:07;6.50;;;3.33;;
5257;SDS011;2651;51.594;9.928;2022-07-09T00:26:09;7.23;;;3.47;;
5257;SDS011;2651;51.594;9.928;2022-07-09T00:27:11;5.90;;;3.53;;
5257;SDS011;2651;51.594;9.928;2022-07-09T00:28:12;5.07;;;3.47;;
5257;SDS011;2651;51.594;9.928;2022-07-09T00:29:14;9.27;;;3.70;;
5257;SDS011;2651;51.594;9.928;2022-07-09T00:30:16;5.10;;;3.73;;
5257;SDS011;2651;51.594;9.928;2022-07-09T00:31:18;4.60;;;3.60;;
5257;SDS011;2651;51.594;9.928;2022-07-09T00:32:20;4.03;;;3.60;;
5257;SDS011;2651;51.594;9.928;2022-07-09T00:33:21;5.77;;;3.00;;
5257;SDS011;2651;51.594;9.928;2022-07-09T00:34:23;5.33;;;3.27;;
5257;SDS011;2651;51.594;9.928;2022-07-09T00:35:25;13.23;;;3.60;;
5257;SDS011;2651;51.594;9.928;2022-07-09T00:36:27;7.10;;;3.90;;
5257;SDS011;2651;51.594;9.928;2022-07-09T00:37:29;7.77;;;3.30;;
5257;SDS011;2651;51.594;9.928;2022-07-09T00:38:30;3.57;;;3.23;;
5257;SDS011;2651;51.594;9.928;2022-07-09T00:39:32;4.17;;;3.37;;
5257;SDS011;2651;51.594;9.928;2022-07-09T00:40:34;7.43;;;3.27;;
5257;SDS011;2651;51.594;9.928;2022-07-09T00:41:36;7.50;;;3.10;;
5257;SDS011;2651;51.594;9.928;2022-07-09T00:42:38;6.60;;;2.87;;
5257;SDS011;2651;51.594;9.928;2022-07-09T00:43:45;5.63;;;3.50;;
5257;SDS011;2651;51.594;9.928;2022-07-09T00:44:51;3.10;;;2.70;;
5257;SDS011;2651;51.594;9.928;2022-07-09T00:45:53;8.00;;;3.10;;
5257;SDS011;2651;51.594;9.928;2022-07-09T00:46:54;3.23;;;2.80;;
5257;SDS011;2651;51.594;9.928;2022-07-09T00:47:56;5.40;;;2.93;;
5257;SDS011;2651;51.594;9.928;2022-07-09T00:48:58;6.60;;;2.80;;
5257;SDS011;2651;51.594;9.928;2022-07-09T00:50:05;10.67;;;3.37;;
5257;SDS011;2651;51.594;9.928;2022-07-09T00:51:07;4.57;;;3.40;;
5257;SDS011;2651;51.594;9.928;2022-07-09T00:52:11;4.87;;;2.93;;
5257;SDS011;2651;51.594;9.928;2022-07-09T00:53:15;4.57;;;2.97;;
5257;SDS011;2651;51.594;9.928;2022-07-09T00:54:18;5.77;;;3.47;;
5257;SDS011;2651;51.594;9.928;2022-07-09T00:55:20;5.07;;;2.77;;
5257;SDS011;2651;51.594;9.928;2022-07-09T00:56:23;7.17;;;3.00;;
5257;SDS011;2651;51.594;9.928;2022-07-09T00:57:25;5.67;;;3.10;;
5257;SDS011;2651;51.594;9.928;2022-07-09T00:58:27;7.27;;;3.60;;
5257;SDS011;2651;51.594;9.928;2022-07-09T00:59:29;8.83;;;3.43;;
5257;SDS011;2651;51.594;9.928;2022-07-09T01:00:32;4.33;;;3.23;;
5257;SDS011;2651;51.594;9.928;2022-07-09T01:01:35;3.40;;;3.20;;
5257;SDS011;2651;51.594;9.928;2022-07-09T01:02:38;3.20;;;2.77;;
5257;SDS011;2651;51.594;9.928;2022-07-09T01:03:40;4.13;;;2.90;;
5257;SDS011;2651;51.594;9.928;2022-07-09T01:04:42;4.50;;;3.10;;
5257;SDS011;2651;51.594;9.928;2022-07-09T01:05:44;4.37;;;3.57;;
5257;SDS011;2651;51.594;9.928;2022-07-09T01:06:46;3.87;;;3.50;;
5257;SDS011;2651;51.594;9.928;2022-07-09T01:07:48;5.33;;;3.03;;
5257;SDS011;2651;51.594;9.928;2022-07-09T01:08:50;6.37;;;3.27;;
5257;SDS011;2651;51.594;9.928;2022-07-09T01:09:51;3.53;;;3.20;;
5257;SDS011;2651;51.594;9.928;2022-07-09T01:10:53;9.33;;;3.93;;
5257;SDS011;2651;51.594;9.928;2022-07-09T01:11:56;4.63;;;3.13;;
5257;SDS011;2651;51.594;9.928;2022-07-09T01:12:58;6.20;;;3.10;;
5257;SDS011;2651;51.594;9.928;2022-07-09T01:14:01;5.70;;;3.23;;
5257;SDS011;2651;51.594;9.928;2022-07-09T01:15:03;4.00;;;3.17;;
5257;SDS011;2651;51.594;9.928;2022-07-09T01:16:11;5.40;;;3.03;;
5257;SDS011;2651;51.594;9.928;2022-07-09T01:17:14;4.80;;;3.47;;
5257;SDS011;2651;51.594;9.928;2022-07-09T01:18:16;4.43;;;3.00;;
5257;SDS011;2651;51.594;9.928;2022-07-09T01:19:18;3.63;;;2.60;;
5257;SDS011;2651;51.594;9.928;2022-07-09T01:20:23;5.47;;;3.70;;
5257;SDS011;2651;51.594;9.928;2022-07-09T01:21:26;3.90;;;2.80;;
5257;SDS011;2651;51.594;9.928;2022-07-09T01:22:28;4.30;;;2.70;;
5257;SDS011;2651;51.594;9.928;2022-07-09T01:23:30;4.10;;;2.53;;
5257;SDS011;2651;51.594;9.928;2022-07-09T01:24:32;2.67;;;2.47;;
5257;SDS011;2651;51.594;9.928;2022-07-09T01:25:38;4.00;;;2.43;;
5257;SDS011;2651;51.594;9.928;2022-07-09T01:26:41;4.37;;;3.50;;
5257;SDS011;2651;51.594;9.928;2022-07-09T01:27:44;4.73;;;3.30;;
5257;SDS011;2651;51.594;9.928;2022-07-09T01:28:47;5.33;;;2.90;;
5257;SDS011;2651;51.594;9.928;2022-07-09T01:29:48;4.53;;;3.17;;
5257;SDS011;2651;51.594;9.928;2022-07-09T01:30:50;3.23;;;2.70;;
5257;SDS011;2651;51.594;9.928;2022-07-09T01:31:52;6.43;;;3.03;;
5257;SDS011;2651;51.594;9.928;2022-07-09T01:32:54;5.40;;;2.80;;
5257;SDS011;2651;51.594;9.928;2022-07-09T01:33:56;5.57;;;3.03;;
5257;SDS011;2651;51.594;9.928;2022-07-09T01:34:58;5.63;;;3.20;;
5257;SDS011;2651;51.594;9.928;2022-07-09T01:36:00;4.17;;;3.40;;
5257;SDS011;2651;51.594;9.928;2022-07-09T01:37:02;4.43;;;3.07;;
5257;SDS011;2651;51.594;9.928;2022-07-09T01:38:04;3.20;;;3.00;;
5257;SDS011;2651;51.594;9.928;2022-07-09T01:39:05;3.93;;;2.53;;
5257;SDS011;2651;51.594;9.928;2022-07-09T01:40:07;6.43;;;3.20;;
5257;SDS011;2651;51.594;9.928;2022-07-09T01:41:09;3.10;;;2.90;;
5257;SDS011;2651;51.594;9.928;2022-07-09T01:42:11;6.83;;;3.23;;
5257;SDS011;2651;51.594;9.928;2022-07-09T01:43:13;2.70;;;2.50;;
5257;SDS011;2651;51.594;9.928;2022-07-09T01:44:15;4.20;;;3.13;;
5257;SDS011;2651;51.594;9.928;2022-07-09T01:45:16;3.23;;;2.93;;
5257;SDS011;2651;51.594;9.928;2022-07-09T01:46:18;4.80;;;2.80;;
5257;SDS011;2651;51.594;9.928;2022-07-09T01:47:20;3.00;;;2.77;;
5257;SDS011;2651;51.594;9.928;2022-07-09T01:48:22;3.53;;;2.43;;
5257;SDS011;2651;51.594;9.928;2022-07-09T01:49:23;3.20;;;3.00;;
5257;SDS011;2651;51.594;9.928;2022-07-09T01:50:25;7.87;;;3.10;;
5257;SDS011;2651;51.594;9.928;2022-07-09T01:51:27;10.27;;;3.50;;
5257;SDS011;2651;51.594;9.928;2022-07-09T01:52:29;3.33;;;2.73;;
5257;SDS011;2651;51.594;9.928;2022-07-09T01:53:31;6.20;;;3.23;;
5257;SDS011;2651;51.594;9.928;2022-07-09T01:54:34;9.10;;;3.23;;
5257;SDS011;2651;51.594;9.928;2022-07-09T01:55:36;6.40;;;3.47;;
5257;SDS011;2651;51.594;9.928;2022-07-09T01:56:38;5.30;;;2.87;;
5257;SDS011;2651;51.594;9.928;2022-07-09T01:57:39;2.60;;;2.50;;
5257;SDS011;2651;51.594;9.928;2022-07-09T01:58:41;6.20;;;2.77;;
5257;SDS011;2651;51.594;9.928;2022-07-09T01:59:45;3.67;;;2.80;;
5257;SDS011;2651;51.594;9.928;2022-07-09T02:00:46;9.33;;;3.33;;
5257;SDS011;2651;51.594;9.928;2022-07-09T02:01:48;4.50;;;3.07;;
5257;SDS011;2651;51.594;9.928;2022-07-09T02:02:50;3.80;;;2.77;;
5257;SDS011;2651;51.594;9.928;2022-07-09T02:03:52;3.30;;;3.00;;
5257;SDS011;2651;51.594;9.928;2022-07-09T02:04:54;4.07;;;3.13;;
5257;SDS011;2651;51.594;9.928;2022-07-09T02:05:56;4.97;;;3.20;;
5257;SDS011;2651;51.594;9.928;2022-07-09T02:06:57;5.03;;;3.17;;
5257;SDS011;2651;51.594;9.928;2022-07-09T02:07:59;2.97;;;2.70;;
5257;SDS011;2651;51.594;9.928;2022-07-09T02:09:01;7.57;;;3.50;;
5257;SDS011;2651;51.594;9.928;2022-07-09T02:10:03;3.13;;;2.87;;
5257;SDS011;2651;51.594;9.928;2022-07-09T02:11:05;4.70;;;3.20;;
5257;SDS011;2651;51.594;9.928;2022-07-09T02:12:07;4.93;;;3.73;;
5257;SDS011;2651;51.594;9.928;2022-07-09T02:13:09;4.73;;;3.23;;
5257;SDS011;2651;51.594;9.928;2022-07-09T02:14:11;5.83;;;3.27;;
5257;SDS011;2651;51.594;9.928;2022-07-09T02:15:13;4.57;;;3.00;;
5257;SDS011;2651;51.594;9.928;2022-07-09T02:16:15;4.07;;;2.97;;
5257;SDS011;2651;51.594;9.928;2022-07-09T02:17:17;7.10;;;3.20;;
5257;SDS011;2651;51.594;9.928;2022-07-09T02:18:18;5.30;;;3.33;;
5257;SDS011;2651;51.594;9.928;2022-07-09T02:19:20;4.63;;;3.10;;
5257;SDS011;2651;51.594;9.928;2022-07-09T02:20:22;3.00;;;2.80;;
5257;SDS011;2651;51.594;9.928;2022-07-09T02:21:23;5.10;;;3.30;;
5257;SDS011;2651;51.594;9.928;2022-07-09T02:22:25;8.50;;;3.40;;
5257;SDS011;2651;51.594;9.928;2022-07-09T02:23:27;3.13;;;2.83;;
5257;SDS011;2651;51.594;9.928;2022-07-09T02:24:29;4.03;;;3.57;;
5257;SDS011;2651;51.594;9.928;2022-07-09T02:25:31;3.50;;;3.20;;
5257;SDS011;2651;51.594;9.928;2022-07-09T02:26:32;6.00;;;3.13;;
5257;SDS011;2651;51.594;9.928;2022-07-09T02:27:34;4.40;;;3.10;;
5257;SDS011;2651;51.594;9.928;2022-07-09T02:28:36;5.20;;;3.80;;
5257;SDS011;2651;51.594;9.928;2022-07-09T02:29:38;3.77;;;3.37;;
5257;SDS011;2651;51.594;9.928;2022-07-09T02:30:40;4.20;;;3.53;;
5257;SDS011;2651;51.594;9.928;2022-07-09T02:31:41;5.37;;;3.90;;
5257;SDS011;2651;51.594;9.928;2022-07-09T02:32:43;5.50;;;4.40;;
5257;SDS011;2651;51.594;9.928;2022-07-09T02:33:45;4.43;;;3.90;;
5257;SDS011;2651;51.594;9.928;2022-07-09T02:34:47;5.00;;;4.27;;
5257;SDS011;2651;51.594;9.928;2022-07-09T02:35:48;7.13;;;4.17;;
5257;SDS011;2651;51.594;9.928;2022-07-09T02:36:50;6.37;;;4.57;;
5257;SDS011;2651;51.594;9.928;2022-07-09T02:37:52;11.77;;;4.97;;
5257;SDS011;2651;51.594;9.928;2022-07-09T02:38:54;7.30;;;4.93;;
5257;SDS011;2651;51.594;9.928;2022-07-09T02:39:56;14.47;;;4.33;;
5257;SDS011;2651;51.594;9.928;2022-07-09T02:40:57;7.33;;;4.40;;
5257;SDS011;2651;51.594;9.928;2022-07-09T02:41:59;4.30;;;3.90;;
5257;SDS011;2651;51.594;9.928;2022-07-09T02:43:01;4.90;;;3.80;;
5257;SDS011;2651;51.594;9.928;2022-07-09T02:44:03;6.83;;;4.20;;
5257;SDS011;2651;51.594;9.928;2022-07-09T02:45:05;5.60;;;3.93;;
5257;SDS011;2651;51.594;9.928;2022-07-09T02:46:07;4.80;;;4.07;;
5257;SDS011;2651;51.594;9.928;2022-07-09T02:47:10;7.03;;;3.43;;
5257;SDS011;2651;51.594;9.928;2022-07-09T02:48:11;8.87;;;3.83;;
5257;SDS011;2651;51.594;9.928;2022-07-09T02:49:13;3.60;;;3.30;;
5257;SDS011;2651;51.594;9.928;2022-07-09T02:50:15;3.70;;;3.37;;
5257;SDS011;2651;51.594;9.928;2022-07-09T02:51:17;7.77;;;3.60;;
5257;SDS011;2651;51.594;9.928;2022-07-09T02:52:19;3.43;;;3.23;;
5257;SDS011;2651;51.594;9.928;2022-07-09T02:53:20;5.20;;;3.50;;
5257;SDS011;2651;51.594;9.928;2022-07-09T02:54:22;11.00;;;4.00;;
5257;SDS011;2651;51.594;9.928;2022-07-09T02:55:24;7.63;;;4.10;;
5257;SDS011;2651;51.594;9.928;2022-07-09T02:56:26;7.27;;;4.27;;
5257;SDS011;2651;51.594;9.928;2022-07-09T02:57:27;4.60;;;4.13;;
5257;SDS011;2651;51.594;9.928;2022-07-09T02:58:30;6.00;;;3.80;;
5257;SDS011;2651;51.594;9.928;2022-07-09T02:59:32;4.60;;;4.30;;
5257;SDS011;2651;51.594;9.928;2022-07-09T03:00:34;4.80;;;4.30;;
5257;SDS011;2651;51.594;9.928;2022-07-09T03:01:36;6.10;;;3.70;;
5257;SDS011;2651;51.594;9.928;2022-07-09T03:02:38;9.73;;;3.90;;
5257;SDS011;2651;51.594;9.928;2022-07-09T03:03:40;5.57;;;4.10;;
5257;SDS011;2651;51.594;9.928;2022-07-09T03:04:41;4.73;;;4.23;;
5257;SDS011;2651;51.594;9.928;2022-07-09T03:05:43;3.47;;;3.20;;
5257;SDS011;2651;51.594;9.928;2022-07-09T03:06:45;5.50;;;3.60;;
5257;SDS011;2651;51.594;9.928;2022-07-09T03:07:46;6.33;;;4.00;;
5257;SDS011;2651;51.594;9.928;2022-07-09T03:08:48;8.20;;;3.60;;
5257;SDS011;2651;51.594;9.928;2022-07-09T03:09:50;7.47;;;4.40;;
5257;SDS011;2651;51.594;9.928;2022-07-09T03:10:52;6.13;;;3.60;;
5257;SDS011;2651;51.594;9.928;2022-07-09T03:11:53;8.40;;;4.13;;
5257;SDS011;2651;51.594;9.928;2022-07-09T03:12:55;10.87;;;3.97;;
5257;SDS011;2651;51.594;9.928;2022-07-09T03:13:57;6.20;;;4.43;;
5257;SDS011;2651;51.594;9.928;2022-07-09T03:14:59;5.17;;;4.17;;
5257;SDS011;2651;51.594;9.928;2022-07-09T03:16:00;4.50;;;3.80;;
5257;SDS011;2651;51.594;9.928;2022-07-09T03:17:03;6.20;;;3.70;;
5257;SDS011;2651;51.594;9.928;2022-07-09T03:18:05;5.67;;;4.30;;
5257;SDS011;2651;51.594;9.928;2022-07-09T03:19:09;5.10;;;3.50;;
5257;SDS011;2651;51.594;9.928;2022-07-09T03:20:11;5.93;;;4.00;;
5257;SDS011;2651;51.594;9.928;2022-07-09T03:21:13;5.00;;;4.40;;
5257;SDS011;2651;51.594;9.928;2022-07-09T03:22:15;5.03;;;3.83;;
5257;SDS011;2651;51.594;9.928;2022-07-09T03:23:17;3.97;;;3.60;;
5257;SDS011;2651;51.594;9.928;2022-07-09T03:24:18;5.27;;;3.97;;
5257;SDS011;2651;51.594;9.928;2022-07-09T03:25:20;5.60;;;3.87;;
5257;SDS011;2651;51.594;9.928;2022-07-09T03:26:22;10.73;;;4.03;;
5257;SDS011;2651;51.594;9.928;2022-07-09T03:27:24;6.70;;;4.30;;
5257;SDS011;2651;51.594;9.928;2022-07-09T03:28:26;4.83;;;3.90;;
5257;SDS011;2651;51.594;9.928;2022-07-09T03:29:27;6.30;;;3.90;;
5257;SDS011;2651;51.594;9.928;2022-07-09T03:30:29;5.90;;;3.77;;
5257;SDS011;2651;51.594;9.928;2022-07-09T03:31:32;4.70;;;4.00;;
5257;SDS011;2651;51.594;9.928;2022-07-09T03:32:34;6.53;;;3.57;;
5257;SDS011;2651;51.594;9.928;2022-07-09T03:33:35;7.03;;;4.37;;
5257;SDS011;2651;51.594;9.928;2022-07-09T03:34:37;5.00;;;4.27;;
5257;SDS011;2651;51.594;9.928;2022-07-09T03:35:39;9.73;;;4.33;;
5257;SDS011;2651;51.594;9.928;2022-07-09T03:36:41;9.10;;;4.10;;
5257;SDS011;2651;51.594;9.928;2022-07-09T03:37:43;6.83;;;4.10;;
5257;SDS011;2651;51.594;9.928;2022-07-09T03:38:45;8.03;;;4.23;;
5257;SDS011;2651;51.594;9.928;2022-07-09T03:39:47;4.83;;;3.93;;
5257;SDS011;2651;51.594;9.928;2022-07-09T03:40:49;8.27;;;4.60;;
5257;SDS011;2651;51.594;9.928;2022-07-09T03:41:51;14.33;;;4.50;;
5257;SDS011;2651;51.594;9.928;2022-07-09T03:42:53;6.93;;;4.03;;
5257;SDS011;2651;51.594;9.928;2022-07-09T03:43:55;7.73;;;4.20;;
5257;SDS011;2651;51.594;9.928;2022-07-09T03:44:57;3.93;;;3.53;;
5257;SDS011;2651;51.594;9.928;2022-07-09T03:45:59;4.00;;;3.60;;
5257;SDS011;2651;51.594;9.928;2022-07-09T03:47:01;6.60;;;4.00;;
5257;SDS011;2651;51.594;9.928;2022-07-09T03:48:03;9.43;;;3.67;;
5257;SDS011;2651;51.594;9.928;2022-07-09T03:49:05;5.70;;;4.20;;
5257;SDS011;2651;51.594;9.928;2022-07-09T03:50:07;8.80;;;3.97;;
5257;SDS011;2651;51.594;9.928;2022-07-09T03:51:09;19.07;;;4.30;;
5257;SDS011;2651;51.594;9.928;2022-07-09T03:52:11;8.40;;;4.43;;
5257;SDS011;2651;51.594;9.928;2022-07-09T03:53:20;7.50;;;3.93;;
5257;SDS011;2651;51.594;9.928;2022-07-09T03:54:22;13.67;;;4.77;;
5257;SDS011;2651;51.594;9.928;2022-07-09T03:55:24;4.73;;;3.57;;
5257;SDS011;2651;51.594;9.928;2022-07-09T03:56:26;5.30;;;3.77;;
5257;SDS011;2651;51.594;9.928;2022-07-09T03:57:28;12.43;;;4.60;;
5257;SDS011;2651;51.594;9.928;2022-07-09T03:58:30;13.50;;;3.50;;
5257;SDS011;2651;51.594;9.928;2022-07-09T03:59:32;6.70;;;4.00;;
5257;SDS011;2651;51.594;9.928;2022-07-09T04:00:33;8.03;;;4.17;;
5257;SDS011;2651;51.594;9.928;2022-07-09T04:01:35;13.40;;;3.57;;
5257;SDS011;2651;51.594;9.928;2022-07-09T04:02:38;8.10;;;4.00;;
5257;SDS011;2651;51.594;9.928;2022-07-09T04:03:40;8.50;;;4.03;;
5257;SDS011;2651;51.594;9.928;2022-07-09T04:04:41;10.63;;;4.20;;
5257;SDS011;2651;51.594;9.928;2022-07-09T04:05:44;8.70;;;3.90;;
5257;SDS011;2651;51.594;9.928;2022-07-09T04:06:46;15.70;;;4.50;;
5257;SDS011;2651;51.594;9.928;2022-07-09T04:07:48;7.73;;;4.00;;
5257;SDS011;2651;51.594;9.928;2022-07-09T04:08:50;6.80;;;3.60;;
5257;SDS011;2651;51.594;9.928;2022-07-09T04:09:52;7.13;;;3.90;;
5257;SDS011;2651;51.594;9.928;2022-07-09T04:10:54;10.10;;;3.70;;
5257;SDS011;2651;51.594;9.928;2022-07-09T04:11:56;13.50;;;3.73;;
5257;SDS011;2651;51.594;9.928;2022-07-09T04:12:58;10.23;;;3.77;;
5257;SDS011;2651;51.594;9.928;2022-07-09T04:14:00;17.37;;;5.17;;
5257;SDS011;2651;51.594;9.928;2022-07-09T04:15:03;6.00;;;3.63;;
5257;SDS011;2651;51.594;9.928;2022-07-09T04:16:05;5.07;;;3.97;;
5257;SDS011;2651;51.594;9.928;2022-07-09T04:17:07;9.40;;;4.13;;
5257;SDS011;2651;51.594;9.928;2022-07-09T04:18:09;8.20;;;3.80;;
5257;SDS011;2651;51.594;9.928;2022-07-09T04:19:11;11.50;;;4.00;;
5257;SDS011;2651;51.594;9.928;2022-07-09T04:20:13;4.70;;;3.87;;
5257;SDS011;2651;51.594;9.928;2022-07-09T04:21:15;4.03;;;3.67;;
5257;SDS011;2651;51.594;9.928;2022-07-09T04:22:17;17.90;;;5.50;;
5257;SDS011;2651;51.594;9.928;2022-07-09T04:23:19;10.70;;;4.90;;
5257;SDS011;2651;51.594;9.928;2022-07-09T04:24:21;8.70;;;4.40;;
5257;SDS011;2651;51.594;9.928;2022-07-09T04:25:23;7.27;;;4.40;;
5257;SDS011;2651;51.594;9.928;2022-07-09T04:26:25;8.87;;;4.80;;
5257;SDS011;2651;51.594;9.928;2022-07-09T04:27:26;5.30;;;3.80;;
5257;SDS011;2651;51.594;9.928;2022-07-09T04:28:29;10.07;;;5.00;;
5257;SDS011;2651;51.594;9.928;2022-07-09T04:29:30;17.97;;;4.53;;
5257;SDS011;2651;51.594;9.928;2022-07-09T04:30:32;6.07;;;5.10;;
5257;SDS011;2651;51.594;9.928;2022-07-09T04:31:34;5.93;;;4.57;;
5257;SDS011;2651;51.594;9.928;2022-07-09T04:32:36;13.63;;;4.70;;
5257;SDS011;2651;51.594;9.928;2022-07-09T04:33:38;9.93;;;4.67;;
5257;SDS011;2651;51.594;9.928;2022-07-09T04:34:41;5.53;;;4.37;;
5257;SDS011;2651;51.594;9.928;2022-07-09T04:35:43;7.90;;;4.40;;
5257;SDS011;2651;51.594;9.928;2022-07-09T04:36:45;16.60;;;4.60;;
5257;SDS011;2651;51.594;9.928;2022-07-09T04:37:47;16.80;;;4.80;;
5257;SDS011;2651;51.594;9.928;2022-07-09T04:38:49;12.40;;;4.60;;
5257;SDS011;2651;51.594;9.928;2022-07-09T04:39:50;10.30;;;5.37;;
5257;SDS011;2651;51.594;9.928;2022-07-09T04:40:52;10.40;;;5.30;;
5257;SDS011;2651;51.594;9.928;2022-07-09T04:41:54;18.53;;;5.10;;
5257;SDS011;2651;51.594;9.928;2022-07-09T04:42:56;8.03;;;4.50;;
5257;SDS011;2651;51.594;9.928;2022-07-09T04:43:57;10.43;;;4.50;;
5257;SDS011;2651;51.594;9.928;2022-07-09T04:44:59;4.93;;;4.33;;
5257;SDS011;2651;51.594;9.928;2022-07-09T04:46:01;12.77;;;4.73;;
5257;SDS011;2651;51.594;9.928;2022-07-09T04:47:03;7.40;;;4.50;;
5257;SDS011;2651;51.594;9.928;2022-07-09T04:48:05;11.93;;;4.70;;
5257;SDS011;2651;51.594;9.928;2022-07-09T04:49:07;5.70;;;4.50;;
5257;SDS011;2651;51.594;9.928;2022-07-09T04:50:09;7.73;;;4.93;;
5257;SDS011;2651;51.594;9.928;2022-07-09T04:51:12;7.60;;;4.50;;
5257;SDS011;2651;51.594;9.928;2022-07-09T04:52:14;11.03;;;4.77;;
5257;SDS011;2651;51.594;9.928;2022-07-09T04:53:20;6.70;;;4.47;;
5257;SDS011;2651;51.594;9.928;2022-07-09T04:54:22;6.63;;;4.70;;
5257;SDS011;2651;51.594;9.928;2022-07-09T04:55:23;8.90;;;5.30;;
5257;SDS011;2651;51.594;9.928;2022-07-09T04:56:25;9.33;;;4.80;;
5257;SDS011;2651;51.594;9.928;2022-07-09T04:57:44;5.10;;;4.40;;
5257;SDS011;2651;51.594;9.928;2022-07-09T04:58:46;13.03;;;4.27;;
5257;SDS011;2651;51.594;9.928;2022-07-09T04:59:57;7.27;;;4.57;;
5257;SDS011;2651;51.594;9.928;2022-07-09T05:01:00;6.90;;;4.40;;
5257;SDS011;2651;51.594;9.928;2022-07-09T05:02:02;10.37;;;4.90;;
5257;SDS011;2651;51.594;9.928;2022-07-09T05:03:04;9.53;;;5.30;;
5257;SDS011;2651;51.594;9.928;2022-07-09T05:04:06;9.77;;;5.07;;
5257;SDS011;2651;51.594;9.928;2022-07-09T05:05:08;10.80;;;4.83;;
5257;SDS011;2651;51.594;9.928;2022-07-09T05:06:10;9.17;;;5.00;;
5257;SDS011;2651;51.594;9.928;2022-07-09T05:07:12;8.00;;;5.10;;
5257;SDS011;2651;51.594;9.928;2022-07-09T05:08:14;9.97;;;5.37;;
5257;SDS011;2651;51.594;9.928;2022-07-09T05:09:15;19.80;;;11.40;;
5257;SDS011;2651;51.594;9.928;2022-07-09T05:10:17;7.77;;;5.77;;
5257;SDS011;2651;51.594;9.928;2022-07-09T05:11:19;8.87;;;5.53;;
5257;SDS011;2651;51.594;9.928;2022-07-09T05:12:21;13.13;;;6.20;;
5257;SDS011;2651;51.594;9.928;2022-07-09T05:13:22;12.00;;;5.30;;
5257;SDS011;2651;51.594;9.928;2022-07-09T05:14:24;11.77;;;5.10;;
5257;SDS011;2651;51.594;9.928;2022-07-09T05:15:26;12.40;;;5.83;;
5257;SDS011;2651;51.594;9.928;2022-07-09T05:16:31;7.43;;;5.30;;
5257;SDS011;2651;51.594;9.928;2022-07-09T05:17:34;17.20;;;5.80;;
5257;SDS011;2651;51.594;9.928;2022-07-09T05:18:36;11.83;;;6.10;;
5257;SDS011;2651;51.594;9.928;2022-07-09T05:19:39;8.77;;;5.50;;
5257;SDS011;2651;51.594;9.928;2022-07-09T05:20:41;7.30;;;5.40;;
5257;SDS011;2651;51.594;9.928;2022-07-09T05:21:43;13.77;;;6.93;;
5257;SDS011;2651;51.594;9.928;2022-07-09T05:22:45;15.63;;;6.90;;
5257;SDS011;2651;51.594;9.928;2022-07-09T05:23:47;15.33;;;7.60;;
5257;SDS011;2651;51.594;9.928;2022-07-09T05:24:48;14.90;;;7.33;;
5257;SDS011;2651;51.594;9.928;2022-07-09T05:25:50;9.03;;;6.60;;
5257;SDS011;2651;51.594;9.928;2022-07-09T05:26:52;10.83;;;6.77;;
5257;SDS011;2651;51.594;9.928;2022-07-09T05:27:54;18.77;;;7.90;;
5257;SDS011;2651;51.594;9.928;2022-07-09T05:28:56;14.60;;;7.57;;
5257;SDS011;2651;51.594;9.928;2022-07-09T05:29:58;16.10;;;8.10;;
5257;SDS011;2651;51.594;9.928;2022-07-09T05:31:00;20.00;;;8.07;;
5257;SDS011;2651;51.594;9.928;2022-07-09T05:32:21;17.37;;;8.47;;
5257;SDS011;2651;51.594;9.928;2022-07-09T05:33:23;11.93;;;8.20;;
5257;SDS011;2651;51.594;9.928;2022-07-09T05:34:25;14.40;;;8.00;;
5257;SDS011;2651;51.594;9.928;2022-07-09T05:35:27;23.73;;;9.00;;
5257;SDS011;2651;51.594;9.928;2022-07-09T05:36:29;16.47;;;9.17;;
5257;SDS011;2651;51.594;9.928;2022-07-09T05:37:31;12.00;;;7.20;;
5257;SDS011;2651;51.594;9.928;2022-07-09T05:38:32;8.00;;;7.20;;
5257;SDS011;2651;51.594;9.928;2022-07-09T05:39:35;11.47;;;8.33;;
5257;SDS011;2651;51.594;9.928;2022-07-09T05:40:37;14.07;;;8.77;;
5257;SDS011;2651;51.594;9.928;2022-07-09T05:41:38;12.77;;;8.13;;
5257;SDS011;2651;51.594;9.928;2022-07-09T05:42:40;14.40;;;8.37;;
5257;SDS011;2651;51.594;9.928;2022-07-09T05:43:42;18.70;;;8.50;;
5257;SDS011;2651;51.594;9.928;2022-07-09T05:44:43;12.80;;;7.97;;
5257;SDS011;2651;51.594;9.928;2022-07-09T05:45:45;14.00;;;7.80;;
5257;SDS011;2651;51.594;9.928;2022-07-09T05:46:47;20.03;;;9.50;;
5257;SDS011;2651;51.594;9.928;2022-07-09T05:47:49;16.17;;;8.50;;
5257;SDS011;2651;51.594;9.928;2022-07-09T05:48:51;13.90;;;9.47;;
5257;SDS011;2651;51.594;9.928;2022-07-09T05:49:52;19.60;;;8.83;;
5257;SDS011;2651;51.594;9.928;2022-07-09T05:50:54;9.83;;;8.70;;
5257;SDS011;2651;51.594;9.928;2022-07-09T05:51:56;13.40;;;10.20;;
5257;SDS011;2651;51.594;9.928;2022-07-09T05:52:58;12.77;;;8.93;;
5257;SDS011;2651;51.594;9.928;2022-07-09T05:53:59;17.43;;;9.90;;
5257;SDS011;2651;51.594;9.928;2022-07-09T05:55:01;18.27;;;9.13;;
5257;SDS011;2651;51.594;9.928;2022-07-09T05:56:08;14.80;;;9.23;;
5257;SDS011;2651;51.594;9.928;2022-07-09T05:57:10;17.17;;;9.90;;
5257;SDS011;2651;51.594;9.928;2022-07-09T05:58:12;14.23;;;10.80;;
5257;SDS011;2651;51.594;9.928;2022-07-09T05:59:13;16.67;;;9.70;;
5257;SDS011;2651;51.594;9.928;2022-07-09T06:00:15;19.53;;;8.53;;
5257;SDS011;2651;51.594;9.928;2022-07-09T06:01:17;14.03;;;8.60;;
5257;SDS011;2651;51.594;9.928;2022-07-09T06:02:26;22.60;;;10.47;;
5257;SDS011;2651;51.594;9.928;2022-07-09T06:03:28;15.10;;;9.30;;
5257;SDS011;2651;51.594;9.928;2022-07-09T06:04:30;23.80;;;10.50;;
5257;SDS011;2651;51.594;9.928;2022-07-09T06:05:31;20.60;;;10.27;;
5257;SDS011;2651;51.594;9.928;2022-07-09T06:06:33;15.43;;;9.37;;
5257;SDS011;2651;51.594;9.928;2022-07-09T06:07:35;20.57;;;10.00;;
5257;SDS011;2651;51.594;9.928;2022-07-09T06:08:37;14.00;;;9.43;;
5257;SDS011;2651;51.594;9.928;2022-07-09T06:09:38;16.00;;;10.10;;
5257;SDS011;2651;51.594;9.928;2022-07-09T06:10:40;17.40;;;11.00;;
5257;SDS011;2651;51.594;9.928;2022-07-09T06:11:42;13.70;;;10.00;;
5257;SDS011;2651;51.594;9.928;2022-07-09T06:12:44;24.10;;;10.10;;
5257;SDS011;2651;51.594;9.928;2022-07-09T06:13:45;13.17;;;8.90;;
5257;SDS011;2651;51.594;9.928;2022-07-09T06:14:47;18.30;;;11.40;;
5257;SDS011;2651;51.594;9.928;2022-07-09T06:15:49;15.23;;;10.57;;
5257;SDS011;2651;51.594;9.928;2022-07-09T06:16:51;16.23;;;9.27;;
5257;SDS011;2651;51.594;9.928;2022-07-09T06:17:54;21.60;;;10.90;;
5257;SDS011;2651;51.594;9.928;2022-07-09T06:18:56;27.00;;;10.10;;
5257;SDS011;2651;51.594;9.928;2022-07-09T06:22:13;25.63;;;10.20;;
5257;SDS011;2651;51.594;9.928;2022-07-09T06:23:33;12.10;;;9.70;;
5257;SDS011;2651;51.594;9.928;2022-07-09T06:25:11;15.17;;;10.50;;
5257;SDS011;2651;51.594;9.928;2022-07-09T06:26:12;15.70;;;10.87;;
5257;SDS011;2651;51.594;9.928;2022-07-09T06:27:14;18.90;;;11.67;;